Lafayette, Ohio
Current Conditions -  °F | °C
As of 1:53 AM on Friday 31 Oct 2014 (Local Time) from KAOH Reporting Station
Overcast Overcast  
Wind Chill: 39°   Ceiling: 11000
Heat Index: 43°   Visibility: 10mi
Dew Point: 36°   Wind: 6mph
Humidity: 76%   Direction: 180°S
Pressure: 30.01"   Gusts: NA
Location:  40.76°N, 83.95°W
Report Text: KAOH 310553Z AUTO 18005KT 10SM SCT075 OVC110 06/02 A3001 RMK AO2 SLP166 T00610022 10083 20061 58010
Loading
Personal Weather Stations






























Interactive Weather Map
Tropical Storm Tracking
New forecast layout! Learn more

10-Day Weather Forecast

Advertisements
Track Severe Weather on mobile